Ashton, Missouri
Current Conditions -  °F | °C
As of 6:15 PM on Friday 24 Oct 2014 (Local Time) from KEOK Reporting Station
Clear Clear  
Wind Chill: 66°   Ceiling: Unl
Heat Index: 66°   Visibility: 10mi
Dew Point: 59°   Wind: 7mph
Humidity: 78%   Direction: 190°S
Pressure: 29.91"   Gusts: NA
Location:  40.513°N, 91.8882°W
Report Text: KEOK 242315Z AUTO 19006KT 10SM CLR 19/15 A2991 RMK AO2
Loading
Personal Weather Stations






























Interactive Weather Map New forecast layout! Learn more

10-Day Weather Forecast

Advertisements
Track Severe Weather on mobile